createdAt,value
2018-07-05T00:01:09.311Z,17.77
2018-07-05T00:03:49.113Z,17.82
2018-07-05T00:06:28.883Z,17.85
2018-07-05T00:09:08.542Z,17.81
2018-07-05T00:11:48.435Z,17.72
2018-07-05T00:14:28.226Z,17.92
2018-07-05T00:17:07.943Z,17.91
2018-07-05T00:19:47.742Z,17.79
2018-07-05T00:22:27.678Z,17.71
2018-07-05T00:25:07.338Z,17.87
2018-07-05T00:27:47.059Z,17.84
2018-07-05T00:30:26.754Z,17.93
2018-07-05T00:33:06.436Z,17.89
2018-07-05T00:35:46.311Z,17.77
2018-07-05T00:38:26.030Z,17.78
2018-07-05T00:41:05.830Z,17.68
2018-07-05T00:43:45.613Z,17.62
2018-07-05T00:46:25.263Z,17.56
2018-07-05T00:49:05.183Z,17.52
2018-07-05T00:51:44.913Z,17.50
2018-07-05T00:54:24.570Z,17.55
2018-07-05T00:57:04.175Z,17.57
2018-07-05T00:59:43.856Z,17.52
2018-07-05T01:02:23.646Z,17.50
2018-07-05T01:05:03.427Z,17.49
2018-07-05T01:07:43.169Z,17.52
2018-07-05T01:10:22.896Z,17.58
2018-07-05T01:13:02.748Z,17.64
2018-07-05T01:15:42.551Z,17.54
2018-07-05T01:18:22.219Z,17.51
2018-07-05T01:21:02.047Z,17.54
2018-07-05T01:23:41.886Z,17.55
2018-07-05T01:26:21.454Z,17.40
2018-07-05T01:29:01.425Z,17.44
2018-07-05T01:31:41.163Z,17.54
2018-07-05T01:34:20.878Z,17.39
2018-07-05T01:37:00.707Z,17.43
2018-07-05T01:39:40.294Z,17.36
2018-07-05T01:42:20.086Z,17.52
2018-07-05T01:44:59.841Z,17.59
2018-07-05T01:47:39.521Z,17.85
2018-07-05T01:50:19.225Z,17.83
2018-07-05T01:52:59.018Z,17.61
2018-07-05T01:55:38.803Z,17.45
2018-07-05T01:58:18.495Z,17.32
2018-07-05T02:00:58.337Z,17.57
2018-07-05T02:03:38.129Z,17.41
2018-07-05T02:06:17.763Z,17.25
2018-07-05T02:08:57.422Z,17.21
2018-07-05T02:11:37.087Z,17.11
2018-07-05T02:14:16.676Z,17.20
2018-07-05T02:16:56.355Z,17.10
2018-07-05T02:19:36.168Z,17.17
2018-07-05T02:22:15.932Z,17.48
2018-07-05T02:24:55.651Z,17.35
2018-07-05T02:27:35.384Z,17.43
2018-07-05T02:30:15.275Z,17.19
2018-07-05T02:32:55.039Z,17.02
2018-07-05T02:35:34.755Z,16.88
2018-07-05T02:38:19.851Z,16.84
2018-07-05T02:40:59.551Z,16.91
2018-07-05T02:43:39.314Z,16.97
2018-07-05T02:46:19.183Z,16.80
2018-07-05T02:48:58.827Z,16.74
2018-07-05T02:51:38.862Z,16.76
2018-07-05T02:54:18.954Z,16.54
2018-07-05T02:56:58.827Z,16.60
2018-07-05T02:59:38.841Z,16.47
2018-07-05T03:02:18.936Z,16.61
2018-07-05T03:04:59.295Z,16.74
2018-07-05T03:07:38.932Z,16.87
2018-07-05T03:10:18.545Z,16.92
2018-07-05T03:12:58.202Z,16.72
2018-07-05T03:15:37.884Z,16.72
2018-07-05T03:18:17.642Z,16.45
2018-07-05T03:20:57.339Z,16.31
2018-07-05T03:23:37.221Z,16.36
2018-07-05T03:26:17.107Z,16.46
2018-07-05T03:28:56.798Z,16.66
2018-07-05T03:31:36.711Z,16.77
2018-07-05T03:34:16.380Z,16.67
2018-07-05T03:36:56.095Z,16.51
2018-07-05T03:39:35.810Z,16.62
2018-07-05T03:42:15.514Z,16.84
2018-07-05T03:44:55.346Z,17.06
2018-07-05T03:47:35.293Z,17.14
2018-07-05T03:50:15.071Z,17.30
2018-07-05T03:52:54.805Z,17.15
2018-07-05T03:55:34.523Z,17.22
2018-07-05T03:58:14.315Z,17.32
2018-07-05T04:00:54.037Z,17.29
2018-07-05T04:03:33.896Z,17.37
2018-07-05T04:06:13.612Z,17.32
2018-07-05T04:08:53.284Z,17.33
2018-07-05T04:11:33.103Z,17.39
2018-07-05T04:14:13.045Z,17.62
2018-07-05T04:16:54.600Z,17.64
2018-07-05T04:19:34.330Z,17.52
2018-07-05T04:22:14.075Z,17.64
2018-07-05T04:24:53.704Z,17.80
2018-07-05T04:27:33.523Z,17.70
2018-07-05T04:30:13.169Z,17.72
2018-07-05T04:32:53.154Z,17.95
2018-07-05T04:35:32.875Z,18.13
2018-07-05T04:38:12.667Z,18.13
2018-07-05T04:40:52.331Z,18.19
2018-07-05T04:43:32.130Z,18.30
2018-07-05T04:46:11.866Z,18.34
2018-07-05T04:48:51.606Z,18.31
2018-07-05T04:51:31.478Z,18.46
2018-07-05T04:54:11.262Z,18.53
2018-07-05T04:56:51.315Z,18.55
2018-07-05T04:59:31.151Z,18.65
2018-07-05T05:02:10.840Z,18.76
2018-07-05T05:04:50.650Z,18.80
2018-07-05T05:07:30.448Z,19.03
2018-07-05T05:10:10.399Z,19.22
2018-07-05T05:12:50.283Z,19.32
2018-07-05T05:15:30.111Z,19.42
2018-07-05T05:18:09.891Z,19.69
2018-07-05T05:20:50.196Z,20.06
2018-07-05T05:23:30.121Z,20.55
2018-07-05T05:26:09.810Z,20.93
2018-07-05T05:28:49.530Z,20.80
2018-07-05T05:31:29.273Z,20.84
2018-07-05T05:34:09.067Z,20.85
2018-07-05T05:36:48.927Z,20.56
2018-07-05T05:39:28.705Z,20.76
2018-07-05T05:42:08.573Z,20.50
2018-07-05T05:44:48.403Z,20.68
2018-07-05T05:47:28.143Z,20.51
2018-07-05T05:50:07.966Z,20.62
2018-07-05T05:52:47.707Z,20.59
2018-07-05T05:55:27.595Z,20.38
2018-07-05T05:58:07.239Z,20.65
2018-07-05T06:00:47.058Z,20.60
2018-07-05T06:03:26.850Z,20.60
2018-07-05T06:06:06.890Z,20.48
2018-07-05T06:08:46.585Z,20.50
2018-07-05T06:11:26.319Z,20.52
2018-07-05T06:14:06.340Z,20.47
2018-07-05T06:16:46.159Z,20.40
2018-07-05T06:19:26.030Z,20.48
2018-07-05T06:22:05.692Z,20.56
2018-07-05T06:24:45.447Z,20.64
2018-07-05T06:27:25.348Z,20.86
2018-07-05T06:30:05.392Z,21.14
2018-07-05T06:32:45.182Z,21.33
2018-07-05T06:35:25.012Z,21.31
2018-07-05T06:38:04.734Z,21.74
2018-07-05T06:40:44.410Z,22.45
2018-07-05T06:43:24.124Z,23.48
2018-07-05T06:46:04.104Z,24.10
2018-07-05T06:48:43.873Z,23.29
2018-07-05T06:51:23.715Z,23.31
2018-07-05T06:54:03.495Z,24.14
2018-07-05T06:56:43.190Z,25.24
2018-07-05T06:59:22.813Z,25.43
2018-07-05T07:02:02.550Z,25.48
2018-07-05T07:04:42.323Z,25.85
2018-07-05T07:07:22.018Z,25.95
2018-07-05T07:10:01.962Z,26.49
2018-07-05T07:12:41.839Z,26.45
2018-07-05T07:15:21.592Z,27.13
2018-07-05T07:18:01.317Z,27.16
2018-07-05T07:20:41.200Z,27.87
2018-07-05T07:23:20.962Z,27.84
2018-07-05T07:26:00.694Z,27.90
2018-07-05T07:28:40.384Z,27.73
2018-07-05T07:31:20.117Z,27.55
2018-07-05T07:33:59.978Z,27.38
2018-07-05T07:36:39.906Z,27.86
2018-07-05T07:39:19.706Z,28.05
2018-07-05T07:41:50.470Z,27.50
2018-07-05T07:44:19.367Z,27.79
2018-07-05T07:46:47.600Z,27.88
2018-07-05T07:49:15.473Z,28.21
2018-07-05T07:51:43.080Z,26.58
2018-07-05T07:54:10.442Z,26.98
2018-07-05T07:56:37.830Z,27.64
2018-07-05T07:59:05.180Z,27.84
2018-07-05T08:01:32.578Z,27.96
2018-07-05T08:03:59.943Z,27.69
2018-07-05T08:06:27.335Z,27.78
2018-07-05T08:08:54.749Z,28.03
2018-07-05T08:11:22.399Z,28.17
2018-07-05T08:13:50.631Z,28.51
2018-07-05T08:16:17.990Z,28.76
2018-07-05T08:18:45.358Z,28.63
2018-07-05T08:21:13.076Z,28.83
2018-07-05T08:23:40.451Z,28.58
2018-07-05T08:26:08.326Z,28.51
2018-07-05T08:28:35.939Z,28.69
2018-07-05T08:31:03.297Z,28.66
2018-07-05T08:33:30.684Z,28.95
2018-07-05T08:35:58.350Z,28.91
2018-07-05T08:38:26.179Z,29.35
2018-07-05T08:40:53.555Z,29.84
2018-07-05T08:43:20.918Z,29.58
2018-07-05T08:45:48.319Z,29.19
2018-07-05T08:48:15.674Z,29.22
2018-07-05T08:50:43.384Z,29.35
2018-07-05T08:53:10.783Z,29.40
2018-07-05T08:55:38.180Z,29.35
2018-07-05T08:58:05.582Z,28.77
2018-07-05T09:00:32.961Z,29.34
2018-07-05T09:03:00.565Z,29.72
2018-07-05T09:05:27.976Z,29.26
2018-07-05T09:07:55.349Z,29.23
2018-07-05T09:10:23.062Z,29.49
2018-07-05T09:12:50.434Z,29.80
2018-07-05T09:15:17.916Z,30.05
2018-07-05T09:17:45.492Z,29.72
2018-07-05T09:20:12.824Z,29.60
2018-07-05T09:22:40.256Z,29.54
2018-07-05T09:25:07.627Z,29.58
2018-07-05T09:27:34.998Z,29.87
2018-07-05T09:30:02.375Z,29.87
2018-07-05T09:32:29.750Z,29.65
2018-07-05T09:34:57.160Z,29.67
2018-07-05T09:37:24.588Z,30.12
2018-07-05T09:39:51.942Z,29.83
2018-07-05T09:42:19.293Z,30.12
2018-07-05T09:44:46.661Z,30.21
2018-07-05T09:47:14.054Z,30.50
2018-07-05T09:49:41.459Z,30.50
2018-07-05T09:52:08.821Z,30.16
2018-07-05T09:54:36.555Z,30.95
2018-07-05T09:57:03.932Z,30.99
2018-07-05T09:59:31.338Z,30.96
2018-07-05T10:01:58.717Z,30.63
2018-07-05T10:04:26.087Z,30.27
2018-07-05T10:06:53.474Z,30.10
2018-07-05T10:09:20.830Z,30.37
2018-07-05T10:11:48.272Z,30.33
2018-07-05T10:14:15.651Z,31.04
2018-07-05T10:16:43.265Z,30.75
2018-07-05T10:19:10.826Z,30.66
2018-07-05T10:21:38.211Z,30.69
2018-07-05T10:24:06.049Z,30.45
2018-07-05T10:26:33.443Z,31.22
2018-07-05T10:29:13.576Z,31.71
2018-07-05T10:31:53.205Z,31.27
2018-07-05T10:34:20.644Z,31.18
2018-07-05T10:36:48.016Z,31.08
2018-07-05T10:39:15.391Z,31.47
2018-07-05T10:41:55.161Z,31.61
2018-07-05T10:44:34.939Z,31.28
2018-07-05T10:47:14.733Z,31.05
2018-07-05T10:49:55.200Z,31.50
2018-07-05T10:52:34.940Z,31.48
2018-07-05T10:55:14.963Z,31.40
2018-07-05T10:57:54.740Z,31.47
2018-07-05T11:00:34.647Z,31.59
2018-07-05T11:03:14.557Z,31.18
2018-07-05T11:05:54.426Z,30.84
2018-07-05T11:08:34.264Z,30.95
2018-07-05T11:11:14.012Z,31.25
2018-07-05T11:13:53.818Z,31.02
2018-07-05T11:16:33.657Z,31.21
2018-07-05T11:19:13.482Z,31.66
2018-07-05T11:21:53.549Z,31.08
2018-07-05T11:24:33.542Z,30.77
2018-07-05T11:27:13.297Z,29.80
2018-07-05T11:29:53.027Z,29.96
2018-07-05T11:32:32.857Z,30.14
2018-07-05T11:35:12.563Z,30.28
2018-07-05T11:37:52.217Z,30.59
2018-07-05T11:40:32.239Z,30.58
2018-07-05T11:43:11.899Z,30.94
2018-07-05T11:45:51.665Z,31.06
2018-07-05T11:48:31.437Z,31.20
2018-07-05T11:51:11.148Z,31.13
2018-07-05T11:53:51.051Z,30.82
2018-07-05T11:56:30.782Z,30.47
2018-07-05T11:59:10.594Z,30.68
2018-07-05T12:01:50.439Z,30.40
2018-07-05T12:04:30.164Z,30.44
2018-07-05T12:07:10.309Z,30.79
2018-07-05T12:09:49.950Z,30.73
2018-07-05T12:12:29.804Z,30.32
2018-07-05T12:15:09.730Z,30.02
2018-07-05T12:17:49.464Z,30.20
2018-07-05T12:20:29.157Z,30.05
2018-07-05T12:23:08.912Z,29.75
2018-07-05T12:25:48.715Z,29.16
2018-07-05T12:28:28.484Z,29.22
2018-07-05T12:31:08.426Z,28.74
2018-07-05T12:33:47.963Z,28.57
2018-07-05T12:36:27.866Z,28.34
2018-07-05T12:39:07.583Z,28.42
2018-07-05T12:41:48.479Z,28.54
2018-07-05T12:44:28.313Z,28.70
2018-07-05T12:47:08.151Z,28.72
2018-07-05T12:49:47.838Z,28.90
2018-07-05T12:52:27.529Z,28.86
2018-07-05T12:55:07.287Z,28.65
2018-07-05T12:57:47.257Z,28.50
2018-07-05T13:00:27.083Z,28.54
2018-07-05T13:03:06.725Z,28.78
2018-07-05T13:05:46.411Z,29.00
2018-07-05T13:08:26.181Z,29.12
2018-07-05T13:11:05.997Z,29.58
2018-07-05T13:13:45.732Z,30.14
2018-07-05T13:16:25.494Z,30.90
2018-07-05T13:19:05.131Z,31.10
2018-07-05T13:21:44.784Z,31.38
2018-07-05T13:24:24.554Z,31.36
2018-07-05T13:27:04.455Z,32.10
2018-07-05T13:29:44.338Z,32.53
2018-07-05T13:32:24.251Z,32.72
2018-07-05T13:35:03.979Z,32.48
2018-07-05T13:37:43.674Z,30.74
2018-07-05T13:40:23.556Z,29.60
2018-07-05T13:43:03.338Z,28.31
2018-07-05T13:45:43.262Z,28.19
2018-07-05T13:48:23.052Z,28.26
2018-07-05T13:51:02.864Z,28.10
2018-07-05T13:53:42.585Z,28.06
2018-07-05T13:56:22.260Z,28.12
2018-07-05T13:59:02.024Z,28.21
2018-07-05T14:01:42.068Z,28.23
2018-07-05T14:04:21.896Z,28.38
2018-07-05T14:07:01.695Z,28.36
2018-07-05T14:09:41.467Z,28.41
2018-07-05T14:12:21.480Z,28.40
2018-07-05T14:15:01.148Z,28.29
2018-07-05T14:17:41.073Z,28.13
2018-07-05T14:20:20.709Z,27.81
2018-07-05T14:23:00.379Z,27.72
2018-07-05T14:25:41.264Z,27.73
2018-07-05T14:28:20.947Z,27.72
2018-07-05T14:31:00.787Z,27.79
2018-07-05T14:33:40.816Z,27.85
2018-07-05T14:36:20.663Z,27.90
2018-07-05T14:39:00.492Z,27.90
2018-07-05T14:41:40.335Z,27.82
2018-07-05T14:44:19.956Z,27.74
2018-07-05T14:46:59.845Z,27.74
2018-07-05T14:49:41.338Z,27.71
2018-07-05T14:52:21.201Z,27.78
2018-07-05T14:55:00.955Z,27.77
2018-07-05T14:57:40.674Z,27.75
2018-07-05T15:00:20.449Z,27.76
2018-07-05T15:03:00.357Z,27.73
2018-07-05T15:05:40.141Z,27.63
2018-07-05T15:08:19.965Z,27.55
2018-07-05T15:10:59.757Z,27.37
2018-07-05T15:13:39.467Z,27.34
2018-07-05T15:16:19.442Z,27.43
2018-07-05T15:18:59.710Z,27.58
2018-07-05T15:21:39.602Z,27.68
2018-07-05T15:24:19.993Z,27.65
2018-07-05T15:26:59.779Z,27.62
2018-07-05T15:29:39.461Z,27.48
2018-07-05T15:32:19.174Z,27.37
2018-07-05T15:34:59.018Z,27.43
2018-07-05T15:37:38.783Z,27.47
2018-07-05T15:40:18.435Z,27.56
2018-07-05T15:42:58.218Z,27.57
2018-07-05T15:45:38.068Z,27.38
2018-07-05T15:48:18.105Z,27.30
2018-07-05T15:50:57.845Z,27.35
2018-07-05T15:53:37.655Z,27.33
2018-07-05T15:56:17.506Z,27.20
2018-07-05T15:58:57.123Z,27.24
2018-07-05T16:01:37.746Z,27.11
2018-07-05T16:04:17.570Z,27.08
2018-07-05T16:06:57.569Z,27.00
2018-07-05T16:09:37.398Z,26.87
2018-07-05T16:12:17.167Z,26.88
2018-07-05T16:14:56.926Z,26.87
2018-07-05T16:17:36.677Z,26.83
2018-07-05T16:20:16.551Z,26.85
2018-07-05T16:22:56.408Z,26.77
2018-07-05T16:25:36.313Z,26.71
2018-07-05T16:28:15.996Z,26.65
2018-07-05T16:30:55.804Z,26.55
2018-07-05T16:33:35.694Z,26.49
2018-07-05T16:36:15.473Z,26.47
2018-07-05T16:38:55.240Z,26.43
2018-07-05T16:41:35.512Z,26.34
2018-07-05T16:44:15.191Z,26.34
2018-07-05T16:46:56.023Z,26.34
2018-07-05T16:49:35.993Z,26.33
2018-07-05T16:52:15.934Z,26.28
2018-07-05T16:54:55.700Z,26.24
2018-07-05T16:57:35.436Z,26.22
2018-07-05T17:00:15.301Z,26.18
2018-07-05T17:02:55.210Z,26.22
2018-07-05T17:05:35.068Z,26.17
2018-07-05T17:08:15.023Z,26.09
2018-07-05T17:10:54.916Z,26.03
2018-07-05T17:13:37.066Z,26.01
2018-07-05T17:16:16.950Z,25.88
2018-07-05T17:19:05.329Z,25.68
2018-07-05T17:21:52.813Z,25.65
2018-07-05T17:24:56.506Z,25.58
2018-07-05T17:27:36.323Z,25.43
2018-07-05T17:30:16.122Z,25.34
2018-07-05T17:36:00.353Z,25.15
2018-07-05T17:38:40.131Z,25.11
2018-07-05T17:41:19.883Z,25.03
2018-07-05T17:43:59.824Z,24.93
2018-07-05T17:46:39.525Z,24.86
2018-07-05T17:49:19.516Z,24.82
2018-07-05T17:51:59.390Z,24.73
2018-07-05T17:54:39.205Z,24.61
2018-07-05T17:57:19.003Z,24.54
2018-07-05T17:59:58.744Z,24.44
2018-07-05T18:02:38.469Z,24.36
2018-07-05T18:05:18.391Z,24.29
2018-07-05T18:07:58.253Z,24.20
2018-07-05T18:10:38.047Z,24.11
2018-07-05T18:13:17.824Z,24.05
2018-07-05T18:15:57.596Z,23.97
2018-07-05T18:18:37.354Z,23.92
2018-07-05T18:21:17.076Z,23.87
2018-07-05T18:23:57.132Z,23.80
2018-07-05T18:26:36.904Z,23.77
2018-07-05T18:29:17.022Z,23.71
2018-07-05T18:31:57.146Z,23.61
2018-07-05T18:34:37.032Z,23.50
2018-07-05T18:37:16.850Z,23.38
2018-07-05T18:39:56.519Z,23.33
2018-07-05T18:42:36.192Z,23.23
2018-07-05T18:45:15.955Z,23.20
2018-07-05T18:48:32.539Z,23.12
2018-07-05T18:51:12.226Z,23.05
2018-07-05T18:53:52.011Z,23.00
2018-07-05T18:56:31.820Z,23.00
2018-07-05T18:59:12.300Z,22.92
2018-07-05T19:01:51.941Z,22.90
2018-07-05T19:04:31.776Z,22.85
2018-07-05T19:07:11.485Z,22.82
2018-07-05T19:09:51.343Z,22.82
2018-07-05T19:12:31.103Z,22.85
2018-07-05T19:15:10.931Z,22.79
2018-07-05T19:17:50.585Z,22.74
2018-07-05T19:20:30.550Z,22.70
2018-07-05T19:23:10.340Z,22.65
2018-07-05T19:25:50.296Z,22.64
2018-07-05T19:28:30.051Z,22.63
2018-07-05T19:31:10.096Z,22.60
2018-07-05T19:33:49.868Z,22.55
2018-07-05T19:36:29.626Z,22.45
2018-07-05T19:39:09.272Z,22.45
2018-07-05T19:41:48.996Z,22.42
2018-07-05T19:44:28.663Z,22.39
2018-07-05T19:47:08.581Z,22.45
2018-07-05T19:49:48.408Z,22.48
2018-07-05T19:52:28.332Z,22.42
2018-07-05T19:55:07.993Z,22.31
2018-07-05T19:57:47.960Z,22.33
2018-07-05T20:00:27.659Z,22.37
2018-07-05T20:03:07.404Z,22.42
2018-07-05T20:05:47.107Z,22.49
2018-07-05T20:08:26.689Z,22.38
2018-07-05T20:11:06.610Z,22.39
2018-07-05T20:13:46.466Z,22.35
2018-07-05T20:16:26.129Z,22.25
2018-07-05T20:19:05.832Z,22.07
2018-07-05T20:21:45.602Z,21.94
2018-07-05T20:24:25.633Z,21.96
2018-07-05T20:27:05.533Z,21.94
2018-07-05T20:29:45.267Z,21.93
2018-07-05T20:32:24.884Z,21.80
2018-07-05T20:35:04.851Z,21.89
2018-07-05T20:37:44.540Z,22.01
2018-07-05T20:40:24.318Z,22.00
2018-07-05T20:43:03.978Z,21.99
2018-07-05T20:45:44.668Z,21.91
2018-07-05T20:48:24.403Z,21.81
2018-07-05T20:51:04.118Z,21.77
2018-07-05T20:53:43.839Z,21.80
2018-07-05T20:56:23.662Z,21.78
2018-07-05T20:59:03.329Z,21.80
2018-07-05T21:01:43.048Z,21.72
2018-07-05T21:04:22.834Z,21.60
2018-07-05T21:07:02.530Z,21.40
2018-07-05T21:09:42.371Z,21.35
2018-07-05T21:12:22.145Z,21.34
2018-07-05T21:15:01.847Z,21.29
2018-07-05T21:17:41.665Z,21.29
2018-07-05T21:20:21.652Z,21.13
2018-07-05T21:23:01.363Z,21.20
2018-07-05T21:25:41.032Z,21.24
2018-07-05T21:28:20.781Z,21.14
2018-07-05T21:31:00.570Z,21.00
2018-07-05T21:33:40.208Z,20.90
2018-07-05T21:36:19.929Z,20.78
2018-07-05T21:38:59.919Z,20.76
2018-07-05T21:41:39.731Z,20.53
2018-07-05T21:44:19.631Z,20.49
2018-07-05T21:46:59.696Z,20.41
2018-07-05T21:49:39.497Z,20.18
2018-07-05T21:52:19.230Z,20.04
2018-07-05T21:54:58.916Z,19.93
2018-07-05T21:57:38.735Z,19.86
2018-07-05T22:00:18.608Z,19.86
2018-07-05T22:02:58.439Z,19.73
2018-07-05T22:05:38.055Z,19.63
2018-07-05T22:08:17.815Z,19.53
2018-07-05T22:10:57.494Z,19.70
2018-07-05T22:13:37.214Z,19.95
2018-07-05T22:16:16.844Z,19.95
2018-07-05T22:19:02.005Z,20.06
2018-07-05T22:21:46.822Z,20.14
2018-07-05T22:24:31.859Z,19.86
2018-07-05T22:27:16.735Z,19.54
2018-07-05T22:30:01.897Z,19.53
2018-07-05T22:32:41.502Z,19.52
2018-07-05T22:35:23.454Z,19.48
2018-07-05T22:38:03.183Z,19.45
2018-07-05T22:40:42.833Z,19.55
2018-07-05T22:43:22.603Z,19.60
2018-07-05T22:46:02.335Z,19.64
2018-07-05T22:48:42.185Z,19.57
2018-07-05T22:51:22.050Z,19.46
2018-07-05T22:54:01.728Z,19.49
2018-07-05T22:56:41.224Z,19.45
2018-07-05T22:59:20.971Z,19.48
2018-07-05T23:02:00.851Z,19.62
2018-07-05T23:04:40.566Z,19.73
2018-07-05T23:07:20.569Z,19.89
2018-07-05T23:10:00.277Z,19.82
2018-07-05T23:12:39.979Z,19.85
2018-07-05T23:15:19.765Z,19.81
2018-07-05T23:17:59.603Z,19.45
2018-07-05T23:20:39.187Z,19.26
2018-07-05T23:23:18.915Z,19.09
2018-07-05T23:25:58.689Z,19.02
2018-07-05T23:28:38.328Z,18.90
2018-07-05T23:31:18.264Z,18.82
2018-07-05T23:33:58.007Z,18.84
2018-07-05T23:36:37.762Z,18.84
2018-07-05T23:39:17.455Z,18.76
2018-07-05T23:41:57.179Z,18.77
2018-07-05T23:44:36.827Z,18.74
2018-07-05T23:47:16.539Z,18.62
2018-07-05T23:49:56.287Z,18.51
2018-07-05T23:52:35.986Z,18.60
2018-07-05T23:55:15.766Z,18.48
2018-07-05T23:57:55.546Z,18.38
